Avoca, Michigan
Current Conditions -  °F | °C
As of 11:16 AM on Wednesday 22 Oct 2014 (Local Time) from KPHN Reporting Station
Broken Clouds Broken Clouds  
Wind Chill: 10°   Ceiling: 2300
Heat Index: 10°   Visibility: 10mi
Dew Point:   Wind: 12mph
Humidity: 71%   Direction: 350°N
Pressure: 30.32"   Gusts: 16mph
Location:  43.06°N, 82.69°W
Report Text: KPHN 221516Z AUTO 35010G14KT 10SM BKN023 10/05 A3032 RMK AO2
Loading
Personal Weather Stations






























Interactive Weather Map New forecast layout! Learn more

10-Day Weather Forecast

Advertisements
Track Severe Weather on mobile